createdAt,value
2018-02-10T00:00:06.130Z,1.13
2018-02-10T00:02:33.615Z,1.08
2018-02-10T00:05:01.109Z,1.07
2018-02-10T00:07:28.571Z,1.12
2018-02-10T00:09:56.050Z,1.11
2018-02-10T00:12:23.648Z,1.25
2018-02-10T00:14:51.242Z,1.15
2018-02-10T00:17:18.729Z,1.16
2018-02-10T00:19:46.204Z,1.14
2018-02-10T00:22:25.314Z,1.07
2018-02-10T00:24:52.775Z,1.09
2018-02-10T00:27:20.248Z,1.17
2018-02-10T00:29:47.735Z,1.19
2018-02-10T00:32:15.198Z,1.19
2018-02-10T00:34:42.675Z,1.14
2018-02-10T00:37:10.130Z,1.10
2018-02-10T00:42:11.431Z,1.18
2018-02-10T00:44:38.892Z,1.17
2018-02-10T00:47:06.365Z,1.16
2018-02-10T00:49:33.847Z,1.21
2018-02-10T00:52:01.314Z,1.20
2018-02-10T00:54:28.778Z,1.17
2018-02-10T00:56:56.248Z,1.34
2018-02-10T00:59:23.726Z,1.28
2018-02-10T01:01:51.243Z,1.31
2018-02-10T01:04:18.701Z,1.37
2018-02-10T01:06:46.146Z,1.28
2018-02-10T01:09:13.614Z,1.28
2018-02-10T01:11:41.074Z,1.30
2018-02-10T01:14:08.520Z,1.17
2018-02-10T01:16:36.112Z,1.20
2018-02-10T01:19:03.606Z,1.27
2018-02-10T01:21:31.103Z,1.12
2018-02-10T01:23:58.589Z,1.29
2018-02-10T01:26:26.032Z,1.24
2018-02-10T01:28:53.502Z,1.23
2018-02-10T01:31:20.962Z,1.13
2018-02-10T01:33:48.410Z,1.12
2018-02-10T01:36:15.892Z,1.17
2018-02-10T01:38:43.356Z,1.12
2018-02-10T01:41:10.806Z,1.11
2018-02-10T01:43:38.288Z,1.12
2018-02-10T01:46:05.751Z,1.06
2018-02-10T01:48:33.210Z,1.10
2018-02-10T01:51:00.679Z,1.02
2018-02-10T01:53:28.136Z,1.15
2018-02-10T01:55:55.612Z,1.03
2018-02-10T01:58:23.118Z,1.02
2018-02-10T02:00:50.574Z,1.03
2018-02-10T02:03:18.080Z,1.01
2018-02-10T02:05:45.546Z,1.06
2018-02-10T02:08:13.658Z,1.05
2018-02-10T02:10:41.141Z,1.05
2018-02-10T02:13:08.603Z,1.11
2018-02-10T02:15:36.057Z,1.10
2018-02-10T02:18:03.617Z,1.13
2018-02-10T02:20:31.246Z,1.10
2018-02-10T02:22:58.814Z,1.02
2018-02-10T02:25:26.279Z,1.01
2018-02-10T02:27:53.748Z,1.09
2018-02-10T02:30:21.236Z,1.15
2018-02-10T02:32:48.750Z,1.07
2018-02-10T02:35:16.208Z,1.11
2018-02-10T02:37:43.727Z,1.17
2018-02-10T02:40:11.208Z,1.11
2018-02-10T02:42:39.047Z,1.09
2018-02-10T02:45:06.526Z,1.07
2018-02-10T02:47:33.993Z,1.05
2018-02-10T02:50:01.534Z,1.07
2018-02-10T02:52:29.081Z,1.00
2018-02-10T02:54:56.536Z,0.97
2018-02-10T02:57:23.999Z,0.93
2018-02-10T02:59:51.450Z,0.98
2018-02-10T03:02:18.937Z,0.89
2018-02-10T03:04:46.417Z,0.91
2018-02-10T03:07:13.882Z,0.91
2018-02-10T03:09:41.471Z,0.97
2018-02-10T03:12:09.016Z,0.93
2018-02-10T03:14:36.554Z,0.91
2018-02-10T03:17:04.734Z,0.83
2018-02-10T03:19:32.226Z,0.81
2018-02-10T03:21:59.766Z,0.85
2018-02-10T03:24:27.254Z,0.85
2018-02-10T03:26:54.713Z,0.91
2018-02-10T03:29:22.429Z,0.85
2018-02-10T03:31:50.021Z,0.89
2018-02-10T03:34:18.132Z,0.95
2018-02-10T03:36:48.321Z,0.82
2018-02-10T03:39:15.800Z,0.86
2018-02-10T03:41:43.274Z,0.80
2018-02-10T03:44:10.751Z,0.88
2018-02-10T03:46:38.242Z,0.78
2018-02-10T03:49:05.727Z,0.73
2018-02-10T03:51:33.186Z,0.83
2018-02-10T03:54:00.681Z,0.74
2018-02-10T03:56:28.137Z,0.77
2018-02-10T03:58:55.600Z,0.99
2018-02-10T04:01:23.058Z,0.91
2018-02-10T04:03:50.514Z,0.79
2018-02-10T04:06:18.229Z,0.80
2018-02-10T04:08:45.700Z,0.89
2018-02-10T04:11:13.152Z,0.82
2018-02-10T04:13:40.628Z,0.81
2018-02-10T04:16:08.097Z,0.86
2018-02-10T04:18:35.729Z,0.88
2018-02-10T04:21:03.430Z,0.92
2018-02-10T04:23:33.042Z,0.88
2018-02-10T04:26:00.523Z,0.86
2018-02-10T04:28:28.155Z,0.75
2018-02-10T04:30:55.662Z,0.79
2018-02-10T04:33:23.112Z,0.69
2018-02-10T04:35:50.681Z,0.72
2018-02-10T04:38:18.267Z,0.64
2018-02-10T04:40:45.848Z,0.73
2018-02-10T04:43:13.371Z,0.66
2018-02-10T04:45:41.109Z,0.69
2018-02-10T04:48:08.709Z,0.71
2018-02-10T04:50:36.355Z,0.75
2018-02-10T04:53:04.797Z,0.63
2018-02-10T04:55:32.374Z,0.72
2018-02-10T04:58:00.107Z,0.73
2018-02-10T05:00:27.749Z,0.70
2018-02-10T05:02:55.227Z,0.65
2018-02-10T05:05:22.845Z,0.61
2018-02-10T05:07:50.463Z,0.61
2018-02-10T05:10:18.210Z,0.67
2018-02-10T05:12:45.750Z,0.64
2018-02-10T05:15:13.240Z,0.64
2018-02-10T05:17:40.708Z,0.64
2018-02-10T05:20:08.304Z,0.69
2018-02-10T05:22:36.204Z,0.64
2018-02-10T05:25:03.741Z,0.62
2018-02-10T05:27:31.445Z,0.56
2018-02-10T05:29:58.907Z,0.57
2018-02-10T05:32:26.476Z,0.54
2018-02-10T05:34:53.936Z,0.50
2018-02-10T05:37:21.534Z,0.44
2018-02-10T05:39:48.989Z,0.44
2018-02-10T05:42:16.592Z,0.41
2018-02-10T05:44:44.082Z,0.52
2018-02-10T05:47:11.535Z,0.52
2018-02-10T05:49:40.293Z,0.56
2018-02-10T05:52:07.764Z,0.44
2018-02-10T05:54:35.342Z,0.41
2018-02-10T05:57:04.466Z,0.40
2018-02-10T05:59:32.040Z,0.35
2018-02-10T06:01:59.590Z,0.35
2018-02-10T06:04:27.071Z,0.38
2018-02-10T06:06:54.531Z,0.32
2018-02-10T06:09:22.086Z,0.33
2018-02-10T06:11:49.651Z,0.25
2018-02-10T06:14:17.094Z,0.32
2018-02-10T06:16:44.554Z,0.35
2018-02-10T06:19:11.998Z,0.33
2018-02-10T06:21:39.442Z,0.48
2018-02-10T06:24:06.976Z,0.42
2018-02-10T06:26:34.521Z,0.44
2018-02-10T06:29:01.992Z,0.43
2018-02-10T06:31:29.479Z,0.40
2018-02-10T06:33:56.935Z,0.42
2018-02-10T06:36:24.446Z,0.39
2018-02-10T06:38:51.937Z,0.43
2018-02-10T06:41:19.382Z,0.43
2018-02-10T06:43:46.849Z,0.47
2018-02-10T06:46:14.307Z,0.49
2018-02-10T06:48:41.828Z,0.48
2018-02-10T06:51:09.318Z,0.52
2018-02-10T06:53:36.768Z,0.49
2018-02-10T06:56:04.239Z,0.52
2018-02-10T06:58:31.706Z,0.49
2018-02-10T07:00:59.146Z,0.49
2018-02-10T07:03:26.633Z,0.51
2018-02-10T07:05:54.094Z,0.45
2018-02-10T07:08:21.546Z,0.52
2018-02-10T07:10:49.019Z,0.59
2018-02-10T07:13:16.467Z,0.54
2018-02-10T07:15:43.951Z,0.53
2018-02-10T07:18:11.411Z,0.52
2018-02-10T07:20:38.853Z,0.66
2018-02-10T07:23:06.327Z,0.76
2018-02-10T07:25:33.787Z,0.73
2018-02-10T07:28:01.274Z,0.81
2018-02-10T07:30:28.764Z,0.55
2018-02-10T07:32:56.210Z,0.58
2018-02-10T07:35:23.677Z,0.57
2018-02-10T07:37:51.217Z,0.73
2018-02-10T07:40:18.768Z,0.70
2018-02-10T07:42:46.272Z,0.63
2018-02-10T07:45:13.817Z,0.66
2018-02-10T07:47:41.292Z,0.65
2018-02-10T07:50:08.758Z,0.59
2018-02-10T07:52:36.395Z,0.58
2018-02-10T07:55:03.858Z,0.75
2018-02-10T07:57:31.334Z,0.87
2018-02-10T07:59:58.787Z,0.91
2018-02-10T08:02:26.269Z,0.72
2018-02-10T08:04:53.738Z,0.62
2018-02-10T08:07:21.207Z,0.66
2018-02-10T08:09:48.708Z,0.72
2018-02-10T08:12:16.167Z,0.69
2018-02-10T08:14:43.659Z,0.72
2018-02-10T08:17:11.124Z,0.79
2018-02-10T08:19:38.577Z,0.70
2018-02-10T08:22:06.065Z,0.73
2018-02-10T08:24:33.535Z,0.96
2018-02-10T08:27:00.986Z,1.44
2018-02-10T08:29:28.458Z,1.67
2018-02-10T08:31:55.963Z,1.41
2018-02-10T08:34:23.448Z,1.18
2018-02-10T08:36:50.909Z,1.00
2018-02-10T08:39:18.372Z,0.78
2018-02-10T08:41:45.894Z,0.77
2018-02-10T08:44:13.362Z,0.83
2018-02-10T08:46:40.858Z,0.98
2018-02-10T08:49:08.349Z,0.88
2018-02-10T08:51:35.817Z,0.83
2018-02-10T08:54:03.308Z,0.91
2018-02-10T08:56:30.772Z,0.79
2018-02-10T08:58:58.254Z,0.74
2018-02-10T09:01:25.723Z,0.91
2018-02-10T09:03:53.187Z,0.96
2018-02-10T09:06:20.664Z,0.85
2018-02-10T09:08:48.120Z,0.71
2018-02-10T09:11:15.575Z,0.67
2018-02-10T09:13:43.055Z,0.72
2018-02-10T09:16:10.523Z,0.63
2018-02-10T09:18:38.149Z,0.71
2018-02-10T09:21:05.638Z,0.68
2018-02-10T09:23:33.119Z,0.78
2018-02-10T09:26:00.627Z,0.94
2018-02-10T09:28:28.136Z,1.04
2018-02-10T09:30:55.574Z,0.96
2018-02-10T09:33:23.044Z,1.00
2018-02-10T09:35:50.511Z,1.10
2018-02-10T09:38:17.990Z,1.09
2018-02-10T09:40:45.565Z,1.06
2018-02-10T09:43:13.028Z,1.01
2018-02-10T09:45:40.516Z,0.97
2018-02-10T09:48:07.999Z,0.84
2018-02-10T09:50:35.485Z,0.85
2018-02-10T09:53:02.953Z,0.91
2018-02-10T09:55:30.484Z,0.98
2018-02-10T09:57:57.971Z,1.09
2018-02-10T10:00:25.542Z,1.03
2018-02-10T10:02:53.047Z,1.13
2018-02-10T10:05:20.522Z,1.22
2018-02-10T10:07:48.008Z,1.13
2018-02-10T10:10:15.486Z,1.03
2018-02-10T10:12:42.973Z,0.89
2018-02-10T10:15:10.473Z,0.80
2018-02-10T10:17:37.967Z,0.99
2018-02-10T10:20:05.469Z,1.15
2018-02-10T10:22:32.949Z,1.02
2018-02-10T10:25:00.429Z,1.04
2018-02-10T10:27:27.948Z,0.91
2018-02-10T10:29:55.425Z,1.02
2018-02-10T10:32:22.903Z,0.97
2018-02-10T10:34:50.382Z,0.99
2018-02-10T10:37:17.848Z,0.98
2018-02-10T10:39:45.322Z,0.98
2018-02-10T10:42:12.828Z,1.03
2018-02-10T10:44:40.309Z,1.23
2018-02-10T10:47:07.792Z,1.23
2018-02-10T10:49:35.266Z,1.36
2018-02-10T10:52:02.751Z,1.39
2018-02-10T10:54:30.229Z,1.35
2018-02-10T10:56:57.680Z,1.35
2018-02-10T10:59:25.220Z,1.43
2018-02-10T11:01:52.718Z,1.33
2018-02-10T11:04:20.274Z,1.29
2018-02-10T11:06:47.746Z,1.35
2018-02-10T11:09:15.339Z,1.34
2018-02-10T11:11:42.837Z,1.27
2018-02-10T11:14:10.307Z,1.32
2018-02-10T11:16:37.851Z,1.52
2018-02-10T11:19:05.326Z,1.47
2018-02-10T11:21:32.831Z,1.32
2018-02-10T11:24:00.305Z,1.38
2018-02-10T11:26:27.819Z,1.43
2018-02-10T11:28:55.310Z,1.49
2018-02-10T11:31:22.785Z,1.43
2018-02-10T11:33:50.265Z,1.50
2018-02-10T11:36:17.719Z,1.52
2018-02-10T11:38:45.224Z,1.49
2018-02-10T11:41:12.742Z,1.37
2018-02-10T11:43:40.210Z,1.32
2018-02-10T11:46:07.719Z,1.46
2018-02-10T11:48:35.206Z,1.39
2018-02-10T11:51:02.691Z,1.37
2018-02-10T11:53:30.151Z,1.51
2018-02-10T11:55:57.833Z,1.46
2018-02-10T11:58:25.343Z,1.30
2018-02-10T12:00:52.807Z,1.33
2018-02-10T12:03:20.319Z,1.35
2018-02-10T12:05:47.811Z,1.33
2018-02-10T12:08:15.258Z,1.36
2018-02-10T12:10:42.772Z,1.35
2018-02-10T12:13:10.247Z,1.38
2018-02-10T12:15:37.788Z,1.34
2018-02-10T12:18:05.319Z,1.32
2018-02-10T12:20:32.829Z,1.31
2018-02-10T12:23:00.551Z,1.32
2018-02-10T12:25:28.058Z,1.32
2018-02-10T12:27:55.537Z,1.38
2018-02-10T12:30:23.059Z,1.54
2018-02-10T12:32:51.029Z,1.77
2018-02-10T12:37:52.879Z,1.61
2018-02-10T12:40:21.031Z,1.53
2018-02-10T12:42:55.035Z,1.35
2018-02-10T12:45:23.217Z,1.38
2018-02-10T12:47:56.373Z,1.50
2018-02-10T12:50:24.464Z,1.52
2018-02-10T12:52:55.900Z,1.49
2018-02-10T12:55:25.222Z,1.40
2018-02-10T12:57:53.981Z,1.53
2018-02-10T13:00:23.165Z,1.36
2018-02-10T13:03:04.841Z,1.42
2018-02-10T13:05:33.232Z,1.53
2018-02-10T13:08:01.140Z,1.56
2018-02-10T13:10:29.758Z,1.53
2018-02-10T13:12:58.960Z,1.48
2018-02-10T13:15:28.927Z,1.51
2018-02-10T13:17:56.831Z,1.53
2018-02-10T13:20:27.158Z,1.53
2018-02-10T13:22:57.890Z,1.46
2018-02-10T13:25:25.795Z,1.39
2018-02-10T13:27:53.546Z,1.43
2018-02-10T13:30:21.154Z,1.44
2018-02-10T13:32:48.805Z,1.35
2018-02-10T13:35:16.274Z,1.56
2018-02-10T13:37:43.745Z,1.61
2018-02-10T13:40:11.232Z,1.44
2018-02-10T13:42:41.378Z,1.35
2018-02-10T13:45:08.909Z,1.42
2018-02-10T13:47:36.382Z,1.40
2018-02-10T13:50:03.882Z,1.35
2018-02-10T13:52:31.387Z,1.37
2018-02-10T13:54:58.847Z,1.30
2018-02-10T13:57:27.195Z,1.35
2018-02-10T13:59:54.696Z,1.25
2018-02-10T14:02:22.161Z,1.25
2018-02-10T14:04:49.635Z,1.18
2018-02-10T14:07:17.104Z,1.09
2018-02-10T14:09:44.590Z,1.13
2018-02-10T14:12:12.148Z,1.09
2018-02-10T14:14:39.631Z,1.03
2018-02-10T14:17:07.774Z,0.99
2018-02-10T14:19:35.261Z,1.05
2018-02-10T14:22:02.744Z,1.01
2018-02-10T14:24:30.381Z,1.06
2018-02-10T14:26:57.868Z,1.21
2018-02-10T14:29:25.344Z,1.33
2018-02-10T14:31:52.822Z,1.18
2018-02-10T14:34:20.322Z,1.08
2018-02-10T14:36:47.795Z,1.02
2018-02-10T14:39:15.439Z,1.00
2018-02-10T14:41:42.967Z,1.02
2018-02-10T14:44:10.428Z,1.06
2018-02-10T14:46:37.954Z,1.04
2018-02-10T14:49:05.487Z,0.98
2018-02-10T14:51:32.989Z,0.94
2018-02-10T14:54:00.496Z,0.95
2018-02-10T14:56:27.956Z,0.92
2018-02-10T14:58:55.466Z,0.95
2018-02-10T15:01:22.954Z,0.96
2018-02-10T15:03:50.439Z,0.93
2018-02-10T15:06:17.997Z,1.03
2018-02-10T15:08:45.467Z,1.04
2018-02-10T15:11:12.946Z,1.00
2018-02-10T15:13:40.412Z,0.94
2018-02-10T15:18:42.480Z,0.96
2018-02-10T15:21:09.974Z,0.87
2018-02-10T15:23:37.444Z,0.91
2018-02-10T15:26:04.939Z,0.84
2018-02-10T15:28:32.419Z,0.92
2018-02-10T15:31:11.686Z,0.95
2018-02-10T15:33:50.899Z,0.91
2018-02-10T15:36:18.411Z,0.82
2018-02-10T15:38:45.905Z,0.88
2018-02-10T15:41:13.399Z,0.84
2018-02-10T15:43:40.912Z,0.91
2018-02-10T15:46:08.409Z,0.88
2018-02-10T15:48:35.929Z,0.86
2018-02-10T15:51:03.436Z,0.88
2018-02-10T15:53:30.908Z,0.82
2018-02-10T15:55:58.352Z,0.93
2018-02-10T15:58:25.885Z,0.82
2018-02-10T16:00:53.369Z,0.70
2018-02-10T16:03:20.840Z,0.71
2018-02-10T16:05:48.727Z,0.84
2018-02-10T16:08:16.586Z,0.81
2018-02-10T16:10:44.243Z,0.79
2018-02-10T16:13:11.734Z,0.72
2018-02-10T16:15:39.222Z,0.74
2018-02-10T16:18:06.704Z,0.73
2018-02-10T16:20:34.403Z,0.84
2018-02-10T16:23:01.912Z,0.81
2018-02-10T16:25:29.392Z,0.83
2018-02-10T16:27:56.889Z,0.78
2018-02-10T16:30:24.790Z,0.82
2018-02-10T16:32:52.279Z,0.70
2018-02-10T16:35:19.843Z,0.72
2018-02-10T16:37:47.351Z,0.70
2018-02-10T16:40:14.858Z,0.75
2018-02-10T16:42:42.352Z,0.76
2018-02-10T16:45:09.951Z,0.73
2018-02-10T16:47:37.433Z,0.74
2018-02-10T16:50:04.937Z,0.75
2018-02-10T16:52:32.420Z,0.79
2018-02-10T16:54:59.921Z,0.74
2018-02-10T16:57:27.437Z,0.65
2018-02-10T16:59:54.909Z,0.76
2018-02-10T17:02:22.393Z,0.84
2018-02-10T17:04:50.069Z,0.82
2018-02-10T17:07:17.526Z,0.84
2018-02-10T17:09:45.087Z,0.75
2018-02-10T17:12:12.557Z,0.81
2018-02-10T17:14:40.063Z,0.75
2018-02-10T17:17:07.536Z,0.69
2018-02-10T17:19:35.008Z,0.72
2018-02-10T17:22:02.507Z,0.78
2018-02-10T17:24:30.022Z,0.86
2018-02-10T17:26:57.513Z,0.75
2018-02-10T17:29:25.016Z,0.77
2018-02-10T17:31:52.537Z,0.86
2018-02-10T17:34:20.050Z,0.85
2018-02-10T17:36:47.533Z,0.89
2018-02-10T17:39:15.080Z,0.83
2018-02-10T17:41:42.662Z,0.80
2018-02-10T17:44:10.130Z,0.81
2018-02-10T17:46:37.644Z,0.91
2018-02-10T17:49:05.172Z,0.88
2018-02-10T17:51:32.643Z,0.93
2018-02-10T17:54:00.145Z,0.95
2018-02-10T17:56:27.679Z,0.93
2018-02-10T17:58:55.482Z,0.94
2018-02-10T18:01:22.973Z,0.93
2018-02-10T18:03:50.491Z,0.94
2018-02-10T18:06:17.970Z,0.94
2018-02-10T18:08:45.436Z,0.87
2018-02-10T18:11:12.991Z,0.99
2018-02-10T18:13:40.457Z,0.93
2018-02-10T18:16:08.011Z,0.93
2018-02-10T18:18:35.489Z,0.94
2018-02-10T18:21:03.026Z,0.86
2018-02-10T18:23:30.545Z,0.91
2018-02-10T18:25:58.062Z,0.86
2018-02-10T18:28:25.516Z,0.92
2018-02-10T18:30:52.996Z,0.96
2018-02-10T18:33:20.691Z,0.91
2018-02-10T18:35:48.171Z,0.91
2018-02-10T18:38:15.649Z,0.87
2018-02-10T18:40:43.530Z,0.74
2018-02-10T18:43:11.014Z,0.79
2018-02-10T18:45:38.530Z,0.88
2018-02-10T18:48:05.977Z,0.97
2018-02-10T18:50:33.471Z,0.91
2018-02-10T18:53:00.981Z,0.93
2018-02-10T18:55:28.447Z,0.90
2018-02-10T18:57:55.946Z,0.87
2018-02-10T19:00:23.554Z,0.79
2018-02-10T19:02:51.171Z,0.79
2018-02-10T19:05:18.647Z,0.76
2018-02-10T19:07:46.239Z,0.81
2018-02-10T19:10:13.700Z,0.89
2018-02-10T19:12:41.269Z,0.97
2018-02-10T19:15:08.826Z,0.88
2018-02-10T19:17:36.370Z,0.90
2018-02-10T19:20:03.892Z,0.90
2018-02-10T19:22:31.377Z,0.88
2018-02-10T19:24:58.841Z,0.88
2018-02-10T19:27:26.361Z,0.85
2018-02-10T19:29:53.848Z,0.83
2018-02-10T19:32:21.325Z,0.83
2018-02-10T19:34:48.808Z,0.82
2018-02-10T19:37:16.282Z,0.77
2018-02-10T19:39:43.779Z,0.82
2018-02-10T19:42:11.241Z,0.80
2018-02-10T19:44:38.725Z,0.76
2018-02-10T19:47:06.204Z,0.73
2018-02-10T19:49:34.844Z,0.74
2018-02-10T19:52:02.387Z,0.78
2018-02-10T19:54:29.886Z,0.80
2018-02-10T19:56:57.359Z,0.72
2018-02-10T19:59:24.829Z,0.75
2018-02-10T20:01:52.292Z,0.63
2018-02-10T20:04:19.793Z,0.63
2018-02-10T20:06:47.370Z,0.64
2018-02-10T20:09:14.895Z,0.67
2018-02-10T20:11:42.401Z,0.57
2018-02-10T20:14:09.892Z,0.63
2018-02-10T20:16:37.509Z,0.64
2018-02-10T20:19:05.007Z,0.62
2018-02-10T20:21:32.512Z,0.63
2018-02-10T20:24:00.017Z,0.67
2018-02-10T20:26:27.533Z,0.70
2018-02-10T20:28:55.015Z,0.78
2018-02-10T20:31:22.515Z,0.84
2018-02-10T20:33:49.998Z,0.78
2018-02-10T20:36:17.508Z,0.76
2018-02-10T20:38:44.995Z,0.72
2018-02-10T20:41:12.534Z,0.74
2018-02-10T20:43:40.022Z,0.89
2018-02-10T20:46:07.535Z,0.91
2018-02-10T20:48:35.052Z,0.91
2018-02-10T20:51:02.581Z,0.77
2018-02-10T20:53:30.087Z,0.77
2018-02-10T20:55:57.557Z,0.88
2018-02-10T20:58:25.041Z,0.92
2018-02-10T21:00:52.581Z,0.90
2018-02-10T21:03:20.073Z,0.85
2018-02-10T21:05:47.592Z,0.87
2018-02-10T21:08:15.058Z,0.75
2018-02-10T21:10:42.758Z,0.75
2018-02-10T21:13:10.277Z,0.78
2018-02-10T21:15:37.787Z,0.81
2018-02-10T21:18:05.768Z,0.78
2018-02-10T21:20:33.296Z,0.79
2018-02-10T21:23:00.803Z,0.82
2018-02-10T21:25:28.353Z,0.82
2018-02-10T21:27:55.840Z,0.82
2018-02-10T21:30:23.449Z,0.75
2018-02-10T21:32:51.193Z,0.63
2018-02-10T21:35:18.688Z,0.74
2018-02-10T21:37:46.188Z,0.72
2018-02-10T21:40:13.662Z,0.84
2018-02-10T21:42:41.482Z,0.74
2018-02-10T21:45:09.000Z,0.73
2018-02-10T21:47:36.573Z,0.74
2018-02-10T21:50:04.120Z,0.78
2018-02-10T21:52:31.621Z,0.72
2018-02-10T21:54:59.133Z,0.70
2018-02-10T21:57:26.693Z,0.79
2018-02-10T21:59:54.212Z,0.80
2018-02-10T22:02:21.721Z,0.71
2018-02-10T22:04:49.235Z,0.70
2018-02-10T22:07:16.745Z,0.85
2018-02-10T22:09:44.288Z,0.79
2018-02-10T22:12:11.947Z,0.69
2018-02-10T22:14:39.482Z,0.68
2018-02-10T22:17:07.114Z,0.72
2018-02-10T22:19:34.725Z,0.75
2018-02-10T22:22:02.451Z,0.73
2018-02-10T22:24:29.972Z,0.71
2018-02-10T22:26:57.530Z,0.65
2018-02-10T22:29:25.274Z,0.63
2018-02-10T22:31:52.826Z,0.53
2018-02-10T22:34:20.407Z,0.50
2018-02-10T22:36:47.926Z,0.56
2018-02-10T22:39:16.653Z,0.73
2018-02-10T22:41:44.151Z,0.73
2018-02-10T22:44:11.772Z,0.71
2018-02-10T22:46:40.976Z,0.69
2018-02-10T22:49:08.580Z,0.70
2018-02-10T22:51:36.112Z,0.58
2018-02-10T22:54:03.619Z,0.59
2018-02-10T22:56:31.099Z,0.55
2018-02-10T22:58:58.615Z,0.72
2018-02-10T23:01:26.111Z,0.70
2018-02-10T23:03:53.636Z,0.68
2018-02-10T23:06:21.129Z,0.62
2018-02-10T23:08:48.640Z,0.58
2018-02-10T23:11:16.155Z,0.61
2018-02-10T23:13:43.635Z,0.63
2018-02-10T23:16:11.099Z,0.70
2018-02-10T23:18:38.609Z,0.65
2018-02-10T23:21:06.091Z,0.68
2018-02-10T23:23:33.553Z,0.62
2018-02-10T23:26:01.168Z,0.65
2018-02-10T23:28:28.660Z,0.73
2018-02-10T23:30:56.127Z,0.78
2018-02-10T23:33:23.679Z,0.84
2018-02-10T23:35:51.142Z,0.81
2018-02-10T23:38:18.610Z,0.83
2018-02-10T23:40:46.096Z,0.79
2018-02-10T23:43:13.583Z,0.66
2018-02-10T23:45:41.067Z,0.66
2018-02-10T23:48:08.548Z,0.64
2018-02-10T23:50:36.020Z,0.58
2018-02-10T23:53:03.524Z,0.53
2018-02-10T23:55:31.048Z,0.60
2018-02-10T23:57:58.626Z,0.59
